createdAt,value
2017-08-01T00:00:13.166Z,0
2017-08-01T00:01:14.577Z,0
2017-08-01T00:02:16.006Z,0
2017-08-01T00:03:17.485Z,0
2017-08-01T00:04:18.980Z,0
2017-08-01T00:05:20.512Z,0
2017-08-01T00:06:21.925Z,0
2017-08-01T00:07:23.376Z,0
2017-08-01T00:08:24.865Z,0
2017-08-01T00:09:26.378Z,0
2017-08-01T00:10:27.915Z,0
2017-08-01T00:11:29.415Z,0
2017-08-01T00:12:30.897Z,0
2017-08-01T00:13:32.427Z,0
2017-08-01T00:14:33.868Z,0
2017-08-01T00:15:35.336Z,0
2017-08-01T00:16:36.839Z,0
2017-08-01T00:17:38.395Z,0
2017-08-01T00:18:39.870Z,0
2017-08-01T00:19:41.360Z,0
2017-08-01T00:20:42.856Z,0
2017-08-01T00:21:44.339Z,0
2017-08-01T00:22:45.868Z,0
2017-08-01T00:23:47.377Z,0
2017-08-01T00:24:48.877Z,0
2017-08-01T00:25:50.385Z,0
2017-08-01T00:26:51.831Z,0
2017-08-01T00:27:53.394Z,0
2017-08-01T00:28:54.867Z,0
2017-08-01T00:29:56.408Z,0
2017-08-01T00:30:57.867Z,0
2017-08-01T00:31:59.329Z,0
2017-08-01T00:33:00.855Z,0
2017-08-01T00:34:02.349Z,0
2017-08-01T00:35:03.852Z,0
2017-08-01T00:36:05.392Z,0
2017-08-01T00:37:06.903Z,0
2017-08-01T00:38:08.419Z,0
2017-08-01T00:39:09.915Z,0
2017-08-01T00:40:11.457Z,0
2017-08-01T00:41:13.022Z,0
2017-08-01T00:42:14.461Z,0
2017-08-01T00:43:15.949Z,0
2017-08-01T00:44:17.448Z,0
2017-08-01T00:45:18.929Z,0
2017-08-01T00:46:20.399Z,0
2017-08-01T00:47:21.876Z,0
2017-08-01T00:48:23.365Z,0
2017-08-01T00:49:24.874Z,0
2017-08-01T00:50:26.364Z,0
2017-08-01T00:51:27.908Z,0
2017-08-01T00:52:29.424Z,0
2017-08-01T00:53:30.897Z,0
2017-08-01T00:54:32.503Z,0
2017-08-01T00:55:33.994Z,0
2017-08-01T00:56:35.418Z,0
2017-08-01T00:57:36.917Z,0
2017-08-01T00:58:38.387Z,0
2017-08-01T00:59:39.885Z,0
2017-08-01T01:00:41.414Z,0
2017-08-01T01:01:42.962Z,0
2017-08-01T01:02:44.420Z,0
2017-08-01T01:03:45.943Z,0
2017-08-01T01:04:47.374Z,0
2017-08-01T01:05:48.871Z,0
2017-08-01T01:06:50.387Z,0
2017-08-01T01:07:51.900Z,0
2017-08-01T01:08:53.414Z,0
2017-08-01T01:09:54.962Z,0
2017-08-01T01:10:56.433Z,0
2017-08-01T01:11:57.895Z,0
2017-08-01T01:12:59.347Z,0
2017-08-01T01:14:00.891Z,0
2017-08-01T01:15:02.381Z,0
2017-08-01T01:16:03.889Z,0
2017-08-01T01:17:05.401Z,0
2017-08-01T01:18:06.906Z,0
2017-08-01T01:19:08.441Z,0
2017-08-01T01:20:09.952Z,0
2017-08-01T01:21:11.398Z,0
2017-08-01T01:22:12.892Z,0
2017-08-01T01:23:14.486Z,0
2017-08-01T01:24:15.960Z,0
2017-08-01T01:25:17.486Z,0
2017-08-01T01:26:19.038Z,0
2017-08-01T01:27:20.543Z,0
2017-08-01T01:28:22.047Z,0
2017-08-01T01:29:23.506Z,0
2017-08-01T01:30:25.021Z,0
2017-08-01T01:31:26.526Z,0
2017-08-01T01:32:28.041Z,0
2017-08-01T01:33:29.558Z,0
2017-08-01T01:34:32.890Z,0
2017-08-01T01:35:34.419Z,0
2017-08-01T01:36:35.982Z,0
2017-08-01T01:37:37.479Z,0
2017-08-01T01:38:38.947Z,0
2017-08-01T01:39:40.432Z,0
2017-08-01T01:40:41.973Z,0
2017-08-01T01:41:43.474Z,0
2017-08-01T01:42:44.933Z,0
2017-08-01T01:43:46.344Z,0
2017-08-01T01:44:47.779Z,0
2017-08-01T01:45:49.252Z,0
2017-08-01T01:46:50.759Z,0
2017-08-01T01:47:52.292Z,0
2017-08-01T01:48:53.775Z,0
2017-08-01T01:49:55.220Z,0
2017-08-01T01:50:56.729Z,0
2017-08-01T01:51:58.274Z,0
2017-08-01T01:52:59.772Z,0
2017-08-01T01:54:01.297Z,0
2017-08-01T01:55:02.798Z,0
2017-08-01T01:56:04.284Z,0
2017-08-01T01:57:05.786Z,0
2017-08-01T01:58:07.250Z,0
2017-08-01T01:59:08.718Z,0
2017-08-01T02:00:10.238Z,0
2017-08-01T02:01:11.755Z,0
2017-08-01T02:02:13.217Z,0
2017-08-01T02:03:14.687Z,0
2017-08-01T02:04:16.232Z,0
2017-08-01T02:05:17.662Z,0
2017-08-01T02:06:19.168Z,0
2017-08-01T02:07:20.694Z,0
2017-08-01T02:08:22.225Z,0
2017-08-01T02:09:23.737Z,0
2017-08-01T02:10:25.243Z,0
2017-08-01T02:11:26.704Z,0
2017-08-01T02:12:28.186Z,0
2017-08-01T02:13:29.749Z,0
2017-08-01T02:14:31.211Z,0
2017-08-01T02:15:32.708Z,0
2017-08-01T02:16:34.188Z,0
2017-08-01T02:17:35.691Z,0
2017-08-01T02:18:37.203Z,0
2017-08-01T02:19:38.729Z,0
2017-08-01T02:20:40.218Z,0
2017-08-01T02:21:41.667Z,0
2017-08-01T02:22:43.185Z,0
2017-08-01T02:23:44.681Z,0
2017-08-01T02:24:46.171Z,0
2017-08-01T02:25:47.696Z,0
2017-08-01T02:26:49.188Z,0
2017-08-01T02:27:50.689Z,0
2017-08-01T02:28:52.178Z,0
2017-08-01T02:29:53.689Z,0
2017-08-01T02:30:55.197Z,0
2017-08-01T02:31:56.646Z,0
2017-08-01T02:32:58.177Z,0
2017-08-01T02:33:59.682Z,0
2017-08-01T02:35:01.158Z,0
2017-08-01T02:36:02.658Z,0
2017-08-01T02:37:04.106Z,0
2017-08-01T02:38:05.567Z,0
2017-08-01T02:39:07.047Z,0
2017-08-01T02:40:08.503Z,0
2017-08-01T02:41:09.987Z,0
2017-08-01T02:42:11.514Z,0
2017-08-01T02:43:13.013Z,0
2017-08-01T02:44:14.487Z,0
2017-08-01T02:45:16.015Z,0
2017-08-01T02:46:17.524Z,0
2017-08-01T02:47:19.008Z,0
2017-08-01T02:48:20.482Z,0
2017-08-01T02:49:21.909Z,0
2017-08-01T02:50:23.364Z,0
2017-08-01T02:51:24.806Z,0
2017-08-01T02:52:26.224Z,0
2017-08-01T02:53:27.669Z,0
2017-08-01T02:54:29.097Z,0
2017-08-01T02:55:30.540Z,0
2017-08-01T02:56:31.963Z,0
2017-08-01T02:57:33.362Z,0
2017-08-01T02:58:34.770Z,0
2017-08-01T02:59:36.189Z,0
2017-08-01T03:00:37.602Z,0
2017-08-01T03:01:39.011Z,0
2017-08-01T03:02:40.426Z,0
2017-08-01T03:03:41.831Z,0
2017-08-01T03:04:43.249Z,0
2017-08-01T03:05:44.654Z,0
2017-08-01T03:06:46.077Z,4
2017-08-01T03:07:47.492Z,0
2017-08-01T03:08:48.903Z,0
2017-08-01T03:09:50.311Z,4
2017-08-01T03:10:51.725Z,4
2017-08-01T03:11:53.138Z,0
2017-08-01T03:12:54.550Z,4
2017-08-01T03:13:55.962Z,4
2017-08-01T03:14:57.374Z,8
2017-08-01T03:15:58.806Z,8
2017-08-01T03:17:00.218Z,4
2017-08-01T03:18:01.630Z,4
2017-08-01T03:19:03.042Z,0
2017-08-01T03:20:04.454Z,0
2017-08-01T03:21:05.860Z,0
2017-08-01T03:22:07.279Z,0
2017-08-01T03:23:08.686Z,4
2017-08-01T03:24:10.118Z,4
2017-08-01T03:25:11.527Z,0
2017-08-01T03:26:12.955Z,4
2017-08-01T03:27:14.385Z,4
2017-08-01T03:28:15.790Z,4
2017-08-01T03:29:17.203Z,4
2017-08-01T03:30:18.603Z,4
2017-08-01T03:31:20.014Z,4
2017-08-01T03:32:21.416Z,4
2017-08-01T03:33:22.834Z,0
2017-08-01T03:34:24.240Z,4
2017-08-01T03:35:25.656Z,4
2017-08-01T03:36:27.069Z,4
2017-08-01T03:37:28.471Z,4
2017-08-01T03:38:29.884Z,4
2017-08-01T03:39:31.291Z,4
2017-08-01T03:40:32.703Z,4
2017-08-01T03:41:34.112Z,4
2017-08-01T03:42:35.524Z,4
2017-08-01T03:43:36.936Z,4
2017-08-01T03:44:38.343Z,4
2017-08-01T03:45:39.763Z,32
2017-08-01T03:46:41.161Z,0
2017-08-01T03:47:42.572Z,0
2017-08-01T03:48:43.984Z,0
2017-08-01T03:49:45.396Z,4
2017-08-01T03:50:46.810Z,4
2017-08-01T03:51:48.217Z,4
2017-08-01T03:52:49.623Z,4
2017-08-01T03:53:51.032Z,4
2017-08-01T03:54:52.440Z,8
2017-08-01T03:55:54.658Z,8
2017-08-01T03:56:56.067Z,8
2017-08-01T03:57:57.478Z,4
2017-08-01T03:58:58.888Z,8
2017-08-01T04:00:00.298Z,8
2017-08-01T04:01:01.710Z,8
2017-08-01T04:02:03.115Z,8
2017-08-01T04:03:04.530Z,12
2017-08-01T04:04:05.939Z,12
2017-08-01T04:05:07.353Z,16
2017-08-01T04:06:08.758Z,24
2017-08-01T04:07:10.170Z,32
2017-08-01T04:08:11.580Z,44
2017-08-01T04:09:12.988Z,56
2017-08-01T04:10:14.397Z,72
2017-08-01T04:11:15.808Z,80
2017-08-01T04:12:17.218Z,88
2017-08-01T04:13:18.628Z,92
2017-08-01T04:14:20.036Z,92
2017-08-01T04:15:21.448Z,104
2017-08-01T04:16:22.862Z,132
2017-08-01T04:17:24.274Z,128
2017-08-01T04:18:25.689Z,168
2017-08-01T04:19:27.108Z,156
2017-08-01T04:20:28.518Z,128
2017-08-01T04:21:29.930Z,128
2017-08-01T04:22:31.345Z,136
2017-08-01T04:23:32.845Z,164
2017-08-01T04:24:34.255Z,204
2017-08-01T04:25:35.674Z,248
2017-08-01T04:26:37.086Z,260
2017-08-01T04:27:38.501Z,276
2017-08-01T04:28:39.910Z,288
2017-08-01T04:29:41.398Z,276
2017-08-01T04:30:42.812Z,248
2017-08-01T04:31:44.223Z,248
2017-08-01T04:32:45.636Z,280
2017-08-01T04:33:47.054Z,340
2017-08-01T04:34:48.461Z,380
2017-08-01T04:35:49.872Z,412
2017-08-01T04:36:51.291Z,420
2017-08-01T04:37:52.702Z,448
2017-08-01T04:38:54.117Z,436
2017-08-01T04:39:55.531Z,444
2017-08-01T04:40:56.943Z,416
2017-08-01T04:41:58.361Z,348
2017-08-01T04:42:59.772Z,272
2017-08-01T04:44:01.185Z,248
2017-08-01T04:45:02.596Z,264
2017-08-01T04:46:04.012Z,328
2017-08-01T04:47:05.420Z,392
2017-08-01T04:48:06.836Z,520
2017-08-01T04:49:08.249Z,560
2017-08-01T04:50:09.664Z,672
2017-08-01T04:51:11.076Z,740
2017-08-01T04:52:12.483Z,784
2017-08-01T04:53:13.950Z,756
2017-08-01T04:54:15.365Z,720
2017-08-01T04:55:16.775Z,696
2017-08-01T04:56:18.186Z,660
2017-08-01T04:57:19.597Z,672
2017-08-01T04:58:21.012Z,628
2017-08-01T04:59:22.427Z,592
2017-08-01T05:00:23.846Z,740
2017-08-01T05:01:25.257Z,1012
2017-08-01T05:02:26.670Z,1416
2017-08-01T05:03:28.081Z,1752
2017-08-01T05:04:29.489Z,1796
2017-08-01T05:05:30.906Z,1876
2017-08-01T05:06:32.316Z,1924
2017-08-01T05:07:33.731Z,1772
2017-08-01T05:08:35.146Z,1284
2017-08-01T05:09:36.565Z,1068
2017-08-01T05:10:37.977Z,1060
2017-08-01T05:11:39.386Z,1020
2017-08-01T05:12:40.805Z,1024
2017-08-01T05:13:42.225Z,1176
2017-08-01T05:14:43.638Z,1328
2017-08-01T05:15:45.057Z,1300
2017-08-01T05:16:46.482Z,1132
2017-08-01T05:17:47.895Z,960
2017-08-01T05:18:49.316Z,804
2017-08-01T05:19:50.726Z,716
2017-08-01T05:20:52.133Z,744
2017-08-01T05:21:53.547Z,848
2017-08-01T05:22:54.957Z,724
2017-08-01T05:23:56.371Z,616
2017-08-01T05:24:57.797Z,656
2017-08-01T05:25:59.210Z,828
2017-08-01T05:27:00.625Z,1080
2017-08-01T05:28:02.040Z,1056
2017-08-01T05:29:03.513Z,1052
2017-08-01T05:30:04.927Z,1228
2017-08-01T05:31:06.370Z,1388
2017-08-01T05:32:07.785Z,1352
2017-08-01T05:33:09.199Z,1084
2017-08-01T05:34:10.615Z,956
2017-08-01T05:35:12.030Z,984
2017-08-01T05:36:13.447Z,872
2017-08-01T05:37:14.860Z,800
2017-08-01T05:38:16.275Z,776
2017-08-01T05:39:17.692Z,764
2017-08-01T05:40:19.099Z,796
2017-08-01T05:41:20.517Z,896
2017-08-01T05:42:21.932Z,1076
2017-08-01T05:43:23.347Z,1272
2017-08-01T05:44:24.768Z,1432
2017-08-01T05:45:26.181Z,1632
2017-08-01T05:46:27.607Z,1900
2017-08-01T05:47:29.015Z,2236
2017-08-01T05:48:30.440Z,2500
2017-08-01T05:49:31.858Z,2588
2017-08-01T05:50:33.270Z,2916
2017-08-01T05:51:34.688Z,3124
2017-08-01T05:52:36.102Z,3228
2017-08-01T05:53:37.515Z,3396
2017-08-01T05:54:38.930Z,3572
2017-08-01T05:55:40.345Z,3680
2017-08-01T05:56:41.757Z,3676
2017-08-01T05:57:43.174Z,3644
2017-08-01T05:58:44.597Z,3716
2017-08-01T05:59:46.010Z,3592
2017-08-01T06:00:47.425Z,3332
2017-08-01T06:01:48.840Z,3048
2017-08-01T06:02:50.310Z,2916
2017-08-01T06:03:51.725Z,2892
2017-08-01T06:04:53.136Z,2896
2017-08-01T06:05:54.558Z,2884
2017-08-01T06:06:55.969Z,2772
2017-08-01T06:07:57.382Z,2636
2017-08-01T06:08:58.794Z,2648
2017-08-01T06:10:00.209Z,2708
2017-08-01T06:11:01.622Z,2808
2017-08-01T06:12:03.037Z,2864
2017-08-01T06:13:04.454Z,2844
2017-08-01T06:14:05.882Z,2984
2017-08-01T06:15:07.290Z,3008
2017-08-01T06:16:08.705Z,2944
2017-08-01T06:17:10.120Z,3108
2017-08-01T06:18:11.537Z,3380
2017-08-01T06:19:12.952Z,3776
2017-08-01T06:20:14.376Z,3844
2017-08-01T06:21:15.792Z,4132
2017-08-01T06:22:17.208Z,4436
2017-08-01T06:23:18.650Z,4772
2017-08-01T06:24:20.067Z,4988
2017-08-01T06:25:21.483Z,4756
2017-08-01T06:26:22.909Z,4040
2017-08-01T06:27:24.320Z,3860
2017-08-01T06:28:25.762Z,3900
2017-08-01T06:29:27.194Z,3968
2017-08-01T06:30:28.618Z,3864
2017-08-01T06:31:30.029Z,3208
2017-08-01T06:32:31.452Z,3864
2017-08-01T06:33:32.860Z,4188
2017-08-01T06:34:34.301Z,3880
2017-08-01T06:35:35.722Z,3680
2017-08-01T06:36:37.131Z,3572
2017-08-01T06:37:38.547Z,4104
2017-08-01T06:38:39.968Z,3956
2017-08-01T06:39:41.383Z,4648
2017-08-01T06:40:42.794Z,4848
2017-08-01T06:41:44.222Z,6120
2017-08-01T06:42:45.661Z,6884
2017-08-01T06:43:47.246Z,6684
2017-08-01T06:44:49.817Z,6480
2017-08-01T06:45:52.593Z,5372
2017-08-01T06:46:54.404Z,4936
2017-08-01T06:47:55.822Z,4892
2017-08-01T06:48:57.242Z,5772
2017-08-01T06:49:58.668Z,5208
2017-08-01T06:51:00.083Z,4676
2017-08-01T06:52:01.502Z,5196
2017-08-01T06:53:02.910Z,6004
2017-08-01T06:54:04.327Z,4828
2017-08-01T06:55:05.744Z,5752
2017-08-01T06:56:07.165Z,5844
2017-08-01T06:57:08.584Z,6160
2017-08-01T06:58:10.019Z,5688
2017-08-01T06:59:11.436Z,6792
2017-08-01T07:00:12.854Z,4932
2017-08-01T07:01:14.273Z,6016
2017-08-01T07:02:15.686Z,4344
2017-08-01T07:03:17.104Z,4720
2017-08-01T07:04:18.527Z,6104
2017-08-01T07:05:19.949Z,6268
2017-08-01T07:06:21.364Z,6064
2017-08-01T07:07:22.801Z,6312
2017-08-01T07:08:24.343Z,5264
2017-08-01T07:09:25.757Z,4824
2017-08-01T07:10:27.176Z,6008
2017-08-01T07:11:28.591Z,4732
2017-08-01T07:12:30.004Z,5024
2017-08-01T07:13:31.425Z,3972
2017-08-01T07:14:32.845Z,5740
2017-08-01T07:15:34.260Z,6532
2017-08-01T07:16:35.677Z,6384
2017-08-01T07:17:37.099Z,6476
2017-08-01T07:18:38.526Z,6496
2017-08-01T07:19:39.965Z,6568
2017-08-01T07:20:41.356Z,6568
2017-08-01T07:21:42.777Z,6552
2017-08-01T07:22:44.229Z,7036
2017-08-01T07:23:45.640Z,7224
2017-08-01T07:24:47.077Z,7284
2017-08-01T07:25:48.494Z,7428
2017-08-01T07:26:49.939Z,7160
2017-08-01T07:27:51.357Z,7384
2017-08-01T07:28:52.774Z,7864
2017-08-01T07:29:54.204Z,7848
2017-08-01T07:30:55.636Z,7936
2017-08-01T07:31:57.055Z,8176
2017-08-01T07:32:58.482Z,8584
2017-08-01T07:33:59.902Z,8712
2017-08-01T07:35:01.315Z,9816
2017-08-01T07:36:02.738Z,8316
2017-08-01T07:37:04.162Z,11272
2017-08-01T07:38:05.586Z,9764
2017-08-01T07:39:07.007Z,8084
2017-08-01T07:40:08.422Z,10568
2017-08-01T07:41:09.844Z,8428
2017-08-01T07:42:11.275Z,11164
2017-08-01T07:43:12.690Z,7552
2017-08-01T07:44:14.118Z,12172
2017-08-01T07:45:15.549Z,11544
2017-08-01T07:46:16.964Z,12212
2017-08-01T07:47:18.407Z,11576
2017-08-01T07:48:19.823Z,6216
2017-08-01T07:49:21.242Z,10416
2017-08-01T07:50:22.654Z,6832
2017-08-01T07:51:24.092Z,11484
2017-08-01T07:52:25.533Z,7404
2017-08-01T07:53:26.952Z,10788
2017-08-01T07:54:28.371Z,6060
2017-08-01T07:55:29.787Z,8260
2017-08-01T07:56:31.209Z,9660
2017-08-01T07:57:32.634Z,9380
2017-08-01T07:58:34.048Z,9608
2017-08-01T07:59:35.466Z,9828
2017-08-01T08:00:36.899Z,9972
2017-08-01T08:01:38.320Z,9984
2017-08-01T08:02:39.745Z,10796
2017-08-01T08:03:41.177Z,11580
2017-08-01T08:04:42.599Z,12292
2017-08-01T08:05:44.016Z,12056
2017-08-01T08:06:45.434Z,14752
2017-08-01T08:07:46.857Z,15424
2017-08-01T08:08:48.283Z,14440
2017-08-01T08:09:49.700Z,15072
2017-08-01T08:10:51.141Z,14380
2017-08-01T08:11:52.559Z,13452
2017-08-01T08:12:53.986Z,12680
2017-08-01T08:13:55.398Z,12132
2017-08-01T08:14:56.830Z,12092
2017-08-01T08:15:58.254Z,12004
2017-08-01T08:16:59.674Z,12428
2017-08-01T08:18:01.091Z,12800
2017-08-01T08:19:02.514Z,13412
2017-08-01T08:20:03.934Z,14464
2017-08-01T08:21:05.357Z,15648
2017-08-01T08:22:06.778Z,16416
2017-08-01T08:23:08.197Z,16448
2017-08-01T08:24:09.619Z,16512
2017-08-01T08:25:11.046Z,17664
2017-08-01T08:26:12.467Z,18336
2017-08-01T08:27:13.903Z,17856
2017-08-01T08:28:15.332Z,16384
2017-08-01T08:29:16.755Z,16288
2017-08-01T08:30:18.179Z,6788
2017-08-01T08:31:19.603Z,6312
2017-08-01T08:32:21.023Z,5612
2017-08-01T08:33:22.443Z,5800
2017-08-01T08:34:23.866Z,5364
2017-08-01T08:35:25.284Z,5704
2017-08-01T08:36:27.201Z,5500
2017-08-01T08:37:28.629Z,13360
2017-08-01T08:38:30.052Z,15072
2017-08-01T08:39:31.722Z,14976
2017-08-01T08:40:33.146Z,14944
2017-08-01T08:41:34.564Z,15072
2017-08-01T08:42:36.013Z,15200
2017-08-01T08:43:37.432Z,15424
2017-08-01T08:44:38.857Z,15456
2017-08-01T08:45:40.365Z,15488
2017-08-01T08:46:41.790Z,15296
2017-08-01T08:47:43.217Z,15584
2017-08-01T08:48:44.631Z,15648
2017-08-01T08:49:46.048Z,15808
2017-08-01T08:50:47.498Z,16032
2017-08-01T08:51:48.928Z,16128
2017-08-01T08:52:50.361Z,16096
2017-08-01T08:53:51.768Z,16160
2017-08-01T08:54:53.192Z,16128
2017-08-01T08:55:54.653Z,15936
2017-08-01T08:56:56.112Z,16032
2017-08-01T08:57:57.538Z,15968
2017-08-01T08:58:59.026Z,15936
2017-08-01T09:00:00.452Z,16064
2017-08-01T09:01:01.875Z,15936
2017-08-01T09:02:03.289Z,15904
2017-08-01T09:03:04.718Z,15872
2017-08-01T09:04:06.150Z,15712
2017-08-01T09:05:07.560Z,15488
2017-08-01T09:06:08.996Z,15328
2017-08-01T09:07:10.407Z,15328
2017-08-01T09:08:11.836Z,15328
2017-08-01T09:09:13.265Z,15136
2017-08-01T09:10:14.682Z,14656
2017-08-01T09:11:16.117Z,14880
2017-08-01T09:12:17.533Z,13332
2017-08-01T09:13:18.954Z,14400
2017-08-01T09:14:20.379Z,14240
2017-08-01T09:15:21.800Z,13892
2017-08-01T09:16:23.227Z,13728
2017-08-01T09:17:24.647Z,14272
2017-08-01T09:18:26.073Z,13568
2017-08-01T09:19:27.495Z,13584
2017-08-01T09:20:28.937Z,13408
2017-08-01T09:21:30.362Z,13808
2017-08-01T09:22:31.785Z,13828
2017-08-01T09:23:33.206Z,13556
2017-08-01T09:24:34.631Z,13544
2017-08-01T09:25:36.054Z,13576
2017-08-01T09:26:37.486Z,13732
2017-08-01T09:27:38.929Z,13832
2017-08-01T09:28:40.349Z,13964
2017-08-01T09:29:41.773Z,13900
2017-08-01T09:30:43.202Z,14060
2017-08-01T09:31:44.639Z,13904
2017-08-01T09:32:46.083Z,14032
2017-08-01T09:33:47.506Z,14528
2017-08-01T09:34:48.935Z,14140
2017-08-01T09:35:50.405Z,14816
2017-08-01T09:36:51.888Z,14944
2017-08-01T09:37:53.295Z,15328
2017-08-01T09:38:54.730Z,15680
2017-08-01T09:39:56.167Z,15968
2017-08-01T09:40:57.592Z,16064
2017-08-01T09:41:59.025Z,16224
2017-08-01T09:43:00.595Z,16544
2017-08-01T09:44:02.074Z,16800
2017-08-01T09:45:03.481Z,16992
2017-08-01T09:46:04.908Z,17120
2017-08-01T09:47:06.440Z,17312
2017-08-01T09:48:07.876Z,17408
2017-08-01T09:49:09.328Z,17696
2017-08-01T09:50:10.752Z,18400
2017-08-01T09:51:12.185Z,18848
2017-08-01T09:52:13.650Z,18976
2017-08-01T09:53:15.139Z,19424
2017-08-01T09:54:16.567Z,19904
2017-08-01T09:55:18.019Z,20288
2017-08-01T09:56:19.617Z,20448
2017-08-01T09:57:21.130Z,20768
2017-08-01T09:58:22.666Z,21248
2017-08-01T09:59:24.132Z,21760
2017-08-01T10:00:25.635Z,22080
2017-08-01T10:01:27.227Z,21152
2017-08-01T10:02:28.669Z,21216
2017-08-01T10:03:30.279Z,21920
2017-08-01T10:04:31.809Z,22624
2017-08-01T10:05:33.354Z,22400
2017-08-01T10:06:34.847Z,22752
2017-08-01T10:07:36.446Z,23104
2017-08-01T10:08:37.954Z,23136
2017-08-01T10:09:39.468Z,22912
2017-08-01T10:10:41.020Z,22784
2017-08-01T10:11:42.607Z,22912
2017-08-01T10:12:44.145Z,22848
2017-08-01T10:13:45.667Z,22304
2017-08-01T10:14:47.191Z,22464
2017-08-01T10:15:48.676Z,22272
2017-08-01T10:16:50.136Z,22016
2017-08-01T10:17:51.566Z,21568
2017-08-01T10:18:53.019Z,21088
2017-08-01T10:19:54.468Z,21216
2017-08-01T10:20:55.898Z,20608
2017-08-01T10:21:57.332Z,20608
2017-08-01T10:22:58.762Z,20288
2017-08-01T10:24:00.188Z,19808
2017-08-01T10:25:01.615Z,19424
2017-08-01T10:26:03.040Z,19168
2017-08-01T11:49:31.959Z,59680
2017-08-01T11:50:33.384Z,76160
2017-08-01T11:51:34.812Z,78048
2017-08-01T11:52:36.247Z,80128
2017-08-01T11:53:37.679Z,75968
2017-08-01T11:54:39.114Z,69632
2017-08-01T11:55:40.544Z,66784
2017-08-01T11:56:41.979Z,67808
2017-08-01T11:57:43.407Z,63104
2017-08-01T11:58:44.838Z,58272
2017-08-01T11:59:46.265Z,65888
2017-08-01T12:00:47.702Z,25344
2017-08-01T12:01:49.135Z,70240
2017-08-01T12:02:50.566Z,77024
2017-08-01T12:03:52.043Z,74720
2017-08-01T12:04:53.493Z,72128
2017-08-01T12:05:54.918Z,73664
2017-08-01T12:06:56.349Z,76896
2017-08-01T12:07:57.780Z,75360
2017-08-01T12:08:59.215Z,72288
2017-08-01T12:10:00.644Z,73056
2017-08-01T12:11:02.079Z,77248
2017-08-01T12:12:03.531Z,53760
2017-08-01T12:13:04.968Z,32704
2017-08-01T12:14:06.391Z,15508
2017-08-01T12:15:07.827Z,48896
2017-08-01T12:16:09.267Z,19552
2017-08-01T12:17:10.710Z,16824
2017-08-01T12:18:12.150Z,18656
2017-08-01T12:19:13.585Z,75776
2017-08-01T12:20:15.025Z,34240
2017-08-01T12:21:16.462Z,73120
2017-08-01T12:22:17.894Z,69888
2017-08-01T12:23:19.320Z,70048
2017-08-01T12:24:20.752Z,68960
2017-08-01T12:25:22.190Z,72960
2017-08-01T12:26:23.629Z,75776
2017-08-01T12:27:25.273Z,76736
2017-08-01T12:28:26.974Z,76704
2017-08-01T12:29:28.413Z,70720
2017-08-01T12:30:29.868Z,70912
2017-08-01T12:31:31.322Z,72160
2017-08-01T12:32:32.748Z,70752
2017-08-01T12:33:34.602Z,75008
2017-08-01T12:34:36.259Z,72480
2017-08-01T12:35:37.689Z,49312
2017-08-01T12:36:39.124Z,45184
2017-08-01T12:37:40.598Z,58592
2017-08-01T12:38:42.061Z,77888
2017-08-01T12:39:43.560Z,77024
2017-08-01T12:40:44.967Z,55488
2017-08-01T12:41:46.416Z,54272
2017-08-01T12:42:47.845Z,25728
2017-08-01T12:43:49.279Z,43456
2017-08-01T12:44:50.772Z,39264
2017-08-01T12:45:52.327Z,36512
2017-08-01T12:46:53.760Z,24320
2017-08-01T12:47:55.192Z,26240
2017-08-01T12:48:56.909Z,36224
2017-08-01T12:49:58.303Z,38336
2017-08-01T12:50:59.743Z,67360
2017-08-01T12:52:01.178Z,80224
2017-08-01T12:53:02.679Z,79936
2017-08-01T12:54:04.117Z,79680
2017-08-01T12:55:05.545Z,79200
2017-08-01T12:56:07.009Z,76512
2017-08-01T12:57:08.444Z,78880
2017-08-01T12:58:09.903Z,83808
2017-08-01T12:59:11.331Z,72992
2017-08-01T13:00:12.765Z,43104
2017-08-01T13:01:14.309Z,56000
2017-08-01T13:02:15.738Z,30144
2017-08-01T13:03:17.175Z,64960
2017-08-01T13:04:18.622Z,30624
2017-08-01T13:05:20.062Z,84896
2017-08-01T13:06:21.496Z,83072
2017-08-01T13:07:22.932Z,75200
2017-08-01T13:08:24.429Z,50208
2017-08-01T13:09:25.842Z,25728
2017-08-01T13:10:27.274Z,36480
2017-08-01T13:11:28.703Z,30016
2017-08-01T13:12:30.136Z,25664
2017-08-01T13:13:31.566Z,22080
2017-08-01T13:14:33.000Z,19584
2017-08-01T13:15:34.429Z,28192
2017-08-01T13:16:35.864Z,44608
2017-08-01T13:17:37.342Z,27104
2017-08-01T13:18:38.970Z,84384
2017-08-01T13:19:40.397Z,83392
2017-08-01T13:20:41.832Z,83200
2017-08-01T13:21:43.269Z,20192
2017-08-01T13:22:44.697Z,36704
2017-08-01T13:23:46.154Z,17888
2017-08-01T13:24:47.640Z,16212
2017-08-01T13:25:49.117Z,73760
2017-08-01T13:26:50.553Z,62656
2017-08-01T13:27:51.983Z,79584
2017-08-01T13:28:53.439Z,75168
2017-08-01T13:29:54.869Z,79168
2017-08-01T13:30:56.302Z,79136
2017-08-01T13:31:57.730Z,77920
2017-08-01T13:32:59.168Z,76864
2017-08-01T13:34:00.601Z,75744
2017-08-01T13:35:02.057Z,77984
2017-08-01T13:36:03.490Z,78304
2017-08-01T13:37:04.921Z,78464
2017-08-01T13:38:06.351Z,79808
2017-08-01T13:39:07.779Z,78784
2017-08-01T13:40:09.211Z,75328
2017-08-01T13:41:10.648Z,79552
2017-08-01T13:42:12.187Z,22400
2017-08-01T13:43:13.686Z,70336
2017-08-01T13:44:15.115Z,49408
2017-08-01T13:45:16.541Z,22976
2017-08-01T13:46:18.004Z,23136
2017-08-01T13:47:19.437Z,62304
2017-08-01T13:48:20.864Z,60288
2017-08-01T13:49:22.314Z,70336
2017-08-01T13:50:23.747Z,71840
2017-08-01T13:51:25.184Z,66432
2017-08-01T13:52:26.621Z,64160
2017-08-01T13:53:28.048Z,69408
2017-08-01T13:54:29.481Z,67712
2017-08-01T13:55:30.917Z,69440
2017-08-01T13:56:32.364Z,47808
2017-08-01T13:57:33.792Z,52800
2017-08-01T13:58:35.229Z,33376
2017-08-01T13:59:36.670Z,33024
2017-08-01T14:00:38.099Z,28672
2017-08-01T14:01:39.533Z,30144
2017-08-01T14:02:40.960Z,24768
2017-08-01T14:03:42.392Z,21856
2017-08-01T14:04:43.826Z,18656
2017-08-01T14:05:45.393Z,15268
2017-08-01T14:06:46.837Z,12732
2017-08-01T14:07:48.269Z,12512
2017-08-01T14:08:49.691Z,11412
2017-08-01T14:09:51.122Z,10924
2017-08-01T14:10:52.574Z,10616
2017-08-01T14:11:54.004Z,10548
2017-08-01T14:12:55.449Z,10448
2017-08-01T14:13:56.888Z,11012
2017-08-01T14:14:58.314Z,10548
2017-08-01T14:15:59.743Z,10496
2017-08-01T14:17:01.244Z,10580
2017-08-01T14:18:02.684Z,11080
2017-08-01T14:19:04.123Z,12888
2017-08-01T14:20:05.558Z,17088
2017-08-01T14:21:06.981Z,34720
2017-08-01T14:22:08.418Z,31008
2017-08-01T14:23:09.850Z,84096
2017-08-01T14:24:11.290Z,75936
2017-08-01T14:25:12.711Z,35776
2017-08-01T14:26:14.140Z,73696
2017-08-01T14:27:15.573Z,71840
2017-08-01T14:28:17.001Z,75904
2017-08-01T14:29:18.455Z,78784
2017-08-01T14:30:19.890Z,78368
2017-08-01T14:31:21.312Z,76096
2017-08-01T14:32:22.744Z,74944
2017-08-01T14:33:24.192Z,73120
2017-08-01T14:34:25.610Z,71904
2017-08-01T14:35:27.056Z,71712
2017-08-01T14:36:28.536Z,74720
2017-08-01T14:37:29.964Z,64032
2017-08-01T14:38:31.404Z,71904
2017-08-01T14:39:32.835Z,71200
2017-08-01T14:40:34.276Z,71904
2017-08-01T14:41:35.730Z,71552
2017-08-01T14:42:37.162Z,70624
2017-08-01T14:43:38.596Z,68544
2017-08-01T14:44:40.025Z,67264
2017-08-01T14:45:41.458Z,15108
2017-08-01T14:46:42.888Z,11520
2017-08-01T14:47:44.319Z,12652
2017-08-01T14:48:45.755Z,11148
2017-08-01T14:49:47.223Z,11460
2017-08-01T14:50:48.653Z,12520
2017-08-01T14:51:50.085Z,13744
2017-08-01T14:52:51.523Z,56608
2017-08-01T14:53:52.960Z,13236
2017-08-01T14:54:54.391Z,14980
2017-08-01T14:55:55.824Z,17824
2017-08-01T14:56:57.254Z,11788
2017-08-01T14:57:58.679Z,12164
2017-08-01T14:59:00.115Z,10864
2017-08-01T15:00:01.539Z,9896
2017-08-01T15:01:02.972Z,10428
2017-08-01T15:02:04.436Z,10728
2017-08-01T15:03:05.842Z,11072
2017-08-01T15:04:07.301Z,12636
2017-08-01T15:05:08.730Z,16192
2017-08-01T15:06:10.162Z,37120
2017-08-01T15:07:11.584Z,19136
2017-08-01T15:08:13.016Z,68960
2017-08-01T15:09:14.440Z,76096
2017-08-01T15:10:15.869Z,69600
2017-08-01T15:11:17.316Z,66816
2017-08-01T15:12:18.741Z,69312
2017-08-01T15:13:20.184Z,66496
2017-08-01T15:14:21.625Z,64256
2017-08-01T15:15:23.045Z,64128